createdAt,value
2022-10-18T00:02:26.189Z,27.77
2022-10-18T00:04:52.649Z,25.37
2022-10-18T00:07:19.101Z,23.90
2022-10-18T00:09:45.952Z,25.57
2022-10-18T00:12:12.693Z,25.37
2022-10-18T00:14:39.228Z,25.30
2022-10-18T00:17:05.709Z,20.87
2022-10-18T00:19:32.365Z,28.17
2022-10-18T00:21:58.950Z,29.17
2022-10-18T00:24:25.653Z,28.77
2022-10-18T00:26:52.106Z,31.47
2022-10-18T00:29:18.590Z,28.33
2022-10-18T00:31:45.199Z,28.23
2022-10-18T00:34:13.908Z,28.60
2022-10-18T00:36:41.051Z,27.50
2022-10-18T00:39:09.413Z,27.10
2022-10-18T00:41:37.927Z,20.80
2022-10-18T00:44:27.470Z,27.03
2022-10-18T00:46:58.603Z,25.33
2022-10-18T00:49:34.221Z,27.47
2022-10-18T00:52:05.036Z,25.23
2022-10-18T00:54:34.762Z,28.17
2022-10-18T00:57:02.317Z,23.60
2022-10-18T00:59:29.921Z,25.83
2022-10-18T01:01:56.912Z,29.33
2022-10-18T01:04:23.827Z,27.77
2022-10-18T01:07:27.655Z,27.20
2022-10-18T01:10:05.230Z,22.27
2022-10-18T01:13:10.138Z,24.43
2022-10-18T01:16:11.173Z,25.97
2022-10-18T01:18:44.151Z,24.97
2022-10-18T01:21:13.493Z,27.20
2022-10-18T01:24:13.816Z,25.13
2022-10-18T01:26:50.363Z,22.50
2022-10-18T01:29:33.324Z,27.57
2022-10-18T01:32:04.936Z,27.33
2022-10-18T01:34:35.094Z,29.70
2022-10-18T01:37:07.795Z,21.60
2022-10-18T01:39:38.530Z,25.90
2022-10-18T01:42:08.834Z,20.00
2022-10-18T01:44:36.804Z,25.10
2022-10-18T01:47:05.013Z,24.13
2022-10-18T01:49:33.337Z,20.13
2022-10-18T01:51:59.890Z,22.37
2022-10-18T01:54:41.183Z,23.37
2022-10-18T01:57:42.414Z,26.17
2022-10-18T02:00:16.611Z,29.90
2022-10-18T02:02:57.011Z,24.10
2022-10-18T02:05:32.565Z,24.67
2022-10-18T02:08:18.751Z,27.27
2022-10-18T02:10:54.314Z,30.03
2022-10-18T02:13:23.857Z,21.03
2022-10-18T02:15:56.279Z,28.77
2022-10-18T02:18:32.550Z,31.17
2022-10-18T02:21:02.626Z,33.97
2022-10-18T02:23:30.776Z,29.63
2022-10-18T02:25:57.697Z,26.07
2022-10-18T02:31:14.473Z,33.00
2022-10-18T02:34:06.615Z,27.93
2022-10-18T02:36:37.897Z,34.50
2022-10-18T02:39:08.878Z,32.33
2022-10-18T02:41:35.411Z,30.80
2022-10-18T02:44:02.227Z,28.40
2022-10-18T02:46:28.806Z,30.00
2022-10-18T02:48:55.250Z,30.83
2022-10-18T02:51:21.727Z,33.53
2022-10-18T02:53:48.150Z,29.33
2022-10-18T02:56:14.627Z,26.53
2022-10-18T02:58:41.077Z,29.27
2022-10-18T03:01:07.629Z,29.40
2022-10-18T03:03:34.146Z,31.90
2022-10-18T03:06:00.877Z,26.73
2022-10-18T03:08:28.705Z,26.37
2022-10-18T03:10:55.140Z,22.80
2022-10-18T03:13:22.011Z,28.53
2022-10-18T03:15:48.695Z,29.67
2022-10-18T03:18:15.667Z,29.83
2022-10-18T03:20:42.744Z,31.00
2022-10-18T03:23:09.262Z,32.83
2022-10-18T03:25:35.793Z,28.87
2022-10-18T03:28:02.917Z,29.20
2022-10-18T03:30:29.690Z,34.03
2022-10-18T03:32:56.253Z,30.93
2022-10-18T03:35:22.776Z,24.13
2022-10-18T03:37:49.379Z,27.50
2022-10-18T03:40:16.212Z,26.53
2022-10-18T03:42:42.900Z,28.00
2022-10-18T03:45:09.798Z,31.70
2022-10-18T03:47:36.205Z,27.07
2022-10-18T03:50:03.031Z,24.63
2022-10-18T03:52:30.030Z,25.10
2022-10-18T03:54:56.807Z,25.23
2022-10-18T03:57:23.595Z,24.43
2022-10-18T03:59:50.183Z,33.83
2022-10-18T04:02:16.753Z,29.63
2022-10-18T04:04:43.262Z,25.67
2022-10-18T04:07:09.696Z,30.57
2022-10-18T04:09:36.187Z,23.40
2022-10-18T04:12:02.906Z,25.37
2022-10-18T04:14:29.764Z,29.27
2022-10-18T04:16:56.232Z,26.80
2022-10-18T04:19:22.651Z,30.17
2022-10-18T04:21:49.107Z,29.90
2022-10-18T04:24:17.849Z,34.27
2022-10-18T04:26:44.338Z,28.33
2022-10-18T04:29:11.045Z,27.50
2022-10-18T04:31:37.543Z,25.40
2022-10-18T04:34:04.450Z,37.90
2022-10-18T04:36:31.642Z,33.50
2022-10-18T04:38:58.486Z,25.77
2022-10-18T04:41:25.141Z,35.87
2022-10-18T04:43:51.640Z,39.70
2022-10-18T04:46:18.381Z,32.33
2022-10-18T04:48:45.361Z,31.57
2022-10-18T04:51:11.886Z,34.60
2022-10-18T04:53:38.387Z,33.53
2022-10-18T04:56:05.306Z,37.27
2022-10-18T04:58:32.701Z,34.47
2022-10-18T05:01:07.149Z,33.53
2022-10-18T05:03:34.235Z,36.77
2022-10-18T05:06:02.871Z,35.47
2022-10-18T05:08:32.438Z,41.10
2022-10-18T05:11:00.131Z,39.27
2022-10-18T05:13:30.001Z,37.23
2022-10-18T05:15:56.690Z,37.93
2022-10-18T05:18:23.132Z,43.43
2022-10-18T05:20:49.534Z,35.23
2022-10-18T05:23:15.959Z,32.63
2022-10-18T05:25:43.368Z,34.87
2022-10-18T05:28:34.602Z,38.90
2022-10-18T05:31:01.277Z,41.40
2022-10-18T05:33:30.067Z,36.80
2022-10-18T05:35:56.905Z,36.67
2022-10-18T05:38:24.105Z,43.23
2022-10-18T05:40:50.674Z,42.93
2022-10-18T05:43:20.042Z,33.03
2022-10-18T05:45:50.893Z,33.33
2022-10-18T05:48:17.799Z,32.23
2022-10-18T05:50:44.923Z,31.43
2022-10-18T05:53:31.780Z,34.47
2022-10-18T05:56:02.200Z,37.97
2022-10-18T05:58:29.115Z,38.83
2022-10-18T06:00:59.890Z,39.60
2022-10-18T06:03:27.694Z,43.43
2022-10-18T06:06:00.366Z,32.90
2022-10-18T06:08:29.248Z,48.03
2022-10-18T06:10:55.885Z,37.37
2022-10-18T06:13:22.443Z,33.67
2022-10-18T06:15:49.181Z,35.10
2022-10-18T06:18:16.157Z,43.93
2022-10-18T06:20:42.763Z,33.43
2022-10-18T06:23:09.298Z,35.33
2022-10-18T06:25:35.740Z,30.13
2022-10-18T06:28:07.740Z,33.83
2022-10-18T06:30:36.978Z,36.50
2022-10-18T06:33:04.449Z,36.47
2022-10-18T06:35:31.102Z,33.00
2022-10-18T06:37:57.751Z,35.33
2022-10-18T06:40:24.468Z,29.90
2022-10-18T06:43:00.133Z,38.27
2022-10-18T06:45:34.177Z,35.27
2022-10-18T06:48:01.032Z,38.17
2022-10-18T06:50:28.811Z,31.10
2022-10-18T06:52:55.374Z,39.67
2022-10-18T06:55:21.897Z,30.80
2022-10-18T06:57:48.501Z,37.50
2022-10-18T07:00:15.522Z,32.43
2022-10-18T07:02:41.993Z,32.00
2022-10-18T07:05:09.427Z,32.33
2022-10-18T07:07:36.174Z,30.50
2022-10-18T07:10:04.935Z,30.47
2022-10-18T07:12:32.738Z,32.20
2022-10-18T07:14:59.589Z,46.13
2022-10-18T07:17:26.854Z,40.43
2022-10-18T07:19:53.477Z,41.30
2022-10-18T07:22:19.995Z,38.63
2022-10-18T07:24:46.492Z,41.47
2022-10-18T07:27:13.000Z,46.10
2022-10-18T07:29:40.433Z,41.03
2022-10-18T07:32:07.016Z,40.27
2022-10-18T07:34:33.552Z,35.97
2022-10-18T07:37:02.844Z,37.77
2022-10-18T07:39:29.934Z,33.20
2022-10-18T07:41:56.695Z,41.70
2022-10-18T07:44:23.271Z,44.33
2022-10-18T07:46:49.774Z,41.37
2022-10-18T07:49:17.079Z,36.63
2022-10-18T07:51:47.894Z,38.67
2022-10-18T07:54:14.404Z,40.83
2022-10-18T07:56:41.311Z,51.40
2022-10-18T07:59:09.427Z,41.77
2022-10-18T08:01:36.004Z,48.57
2022-10-18T08:04:07.204Z,45.03
2022-10-18T08:06:35.451Z,46.30
2022-10-18T08:09:02.798Z,47.57
2022-10-18T08:11:29.374Z,43.17
2022-10-18T08:13:55.836Z,44.53
2022-10-18T08:16:25.365Z,48.10
2022-10-18T08:18:52.624Z,44.07
2022-10-18T08:21:20.579Z,43.63
2022-10-18T08:23:47.768Z,49.90
2022-10-18T08:26:19.537Z,51.47
2022-10-18T08:28:53.909Z,50.13
2022-10-18T08:31:31.112Z,47.20
2022-10-18T08:33:57.716Z,47.13
2022-10-18T08:36:24.608Z,41.40
2022-10-18T08:38:51.705Z,39.77
2022-10-18T08:41:33.740Z,42.10
2022-10-18T08:44:11.863Z,46.40
2022-10-18T08:46:44.165Z,40.47
2022-10-18T08:49:26.484Z,45.77
2022-10-18T08:51:53.981Z,47.73
2022-10-18T08:55:00.544Z,46.83
2022-10-18T08:57:27.032Z,40.20
2022-10-18T08:59:53.671Z,42.63
2022-10-18T09:02:41.976Z,43.20
2022-10-18T09:05:48.988Z,46.23
2022-10-18T09:08:37.398Z,43.10
2022-10-18T09:11:34.396Z,44.80
2022-10-18T09:14:38.411Z,43.70
2022-10-18T09:17:23.763Z,44.57
2022-10-18T09:20:03.579Z,46.40
2022-10-18T09:22:52.243Z,46.43
2022-10-18T09:25:23.368Z,46.57
2022-10-18T09:28:04.606Z,42.27
2022-10-18T09:30:49.499Z,44.97
2022-10-18T09:33:34.714Z,44.37
2022-10-18T09:36:07.798Z,42.43
2022-10-18T09:39:12.118Z,47.17
2022-10-18T09:41:49.798Z,41.70
2022-10-18T09:44:24.405Z,42.37
2022-10-18T09:46:57.805Z,39.60
2022-10-18T09:49:36.264Z,39.17
2022-10-18T09:52:09.102Z,45.40
2022-10-18T09:54:45.145Z,39.63
2022-10-18T09:57:42.929Z,40.83
2022-10-18T10:00:26.017Z,42.67
2022-10-18T10:02:52.518Z,39.07
2022-10-18T10:05:19.691Z,50.60
2022-10-18T10:07:47.919Z,44.53
2022-10-18T10:10:29.350Z,37.73
2022-10-18T10:13:16.054Z,39.83
2022-10-18T10:15:53.438Z,40.30
2022-10-18T10:18:22.393Z,40.13
2022-10-18T10:20:53.291Z,41.00
2022-10-18T10:23:50.635Z,42.93
2022-10-18T10:26:24.694Z,36.70
2022-10-18T10:28:51.617Z,33.63
2022-10-18T10:31:25.171Z,29.60
2022-10-18T10:34:14.096Z,30.43
2022-10-18T10:36:51.790Z,32.13
2022-10-18T10:39:20.132Z,27.27
2022-10-18T10:41:48.131Z,29.07
2022-10-18T10:44:18.268Z,30.73
2022-10-18T10:46:46.283Z,23.00
2022-10-18T10:49:40.635Z,29.23
2022-10-18T10:52:26.220Z,29.57
2022-10-18T10:55:05.920Z,26.83
2022-10-18T10:57:47.259Z,26.67
2022-10-18T11:00:43.666Z,28.20
2022-10-18T11:03:34.000Z,30.23
2022-10-18T11:06:02.849Z,28.23
2022-10-18T11:08:38.655Z,34.30
2022-10-18T11:11:22.256Z,19.60
2022-10-18T11:14:13.542Z,22.40
2022-10-18T11:16:58.981Z,24.20
2022-10-18T11:19:56.850Z,23.20
2022-10-18T11:22:25.907Z,19.80
2022-10-18T11:24:52.392Z,19.90
2022-10-18T11:27:29.671Z,16.63
2022-10-18T11:30:06.172Z,18.53
2022-10-18T11:33:03.508Z,20.43
2022-10-18T11:35:47.611Z,17.87
2022-10-18T11:38:52.005Z,16.80
2022-10-18T11:41:42.872Z,18.13
2022-10-18T11:44:36.718Z,16.93
2022-10-18T11:47:33.407Z,14.70
2022-10-18T11:50:12.891Z,14.43
2022-10-18T11:52:53.028Z,16.30
2022-10-18T11:55:36.657Z,15.83
2022-10-18T11:58:26.664Z,10.60
2022-10-18T12:01:12.869Z,15.90
2022-10-18T12:03:55.798Z,16.70
2022-10-18T12:06:26.462Z,12.20
2022-10-18T12:08:57.951Z,11.77
2022-10-18T12:11:29.542Z,15.87
2022-10-18T12:14:00.438Z,10.00
2022-10-18T12:16:51.063Z,13.13
2022-10-18T12:19:32.161Z,10.93
2022-10-18T12:22:13.738Z,9.23
2022-10-18T12:24:41.946Z,7.80
2022-10-18T12:27:13.161Z,11.93
2022-10-18T12:29:51.430Z,6.67
2022-10-18T12:32:24.645Z,7.27
2022-10-18T12:35:11.279Z,9.17
2022-10-18T12:38:06.258Z,11.53
2022-10-18T12:40:44.302Z,9.20
2022-10-18T12:43:18.807Z,11.70
2022-10-18T12:45:53.055Z,10.33
2022-10-18T12:49:03.085Z,14.73
2022-10-18T12:51:33.179Z,13.10
2022-10-18T12:54:02.435Z,10.00
2022-10-18T12:56:29.291Z,9.67
2022-10-18T12:59:14.250Z,10.63
2022-10-18T13:01:52.996Z,10.40
2022-10-18T13:04:29.062Z,9.80
2022-10-18T13:06:59.464Z,12.57
2022-10-18T13:09:31.466Z,6.80
2022-10-18T13:12:10.038Z,8.70
2022-10-18T13:14:59.071Z,10.23
2022-10-18T13:17:54.797Z,10.23
2022-10-18T13:20:44.305Z,8.63
2022-10-18T13:23:25.761Z,9.77
2022-10-18T13:26:10.893Z,7.93
2022-10-18T13:28:59.432Z,5.37
2022-10-18T13:31:47.654Z,6.97
2022-10-18T13:34:25.213Z,8.30
2022-10-18T13:37:23.739Z,8.73
2022-10-18T13:39:52.133Z,5.40
2022-10-18T13:42:28.504Z,10.17
2022-10-18T13:44:55.108Z,8.40
2022-10-18T13:47:36.035Z,6.07
2022-10-18T13:50:30.727Z,8.10
2022-10-18T13:53:24.881Z,6.27
2022-10-18T13:56:14.932Z,11.47
2022-10-18T13:59:14.534Z,7.67
2022-10-18T14:01:56.021Z,7.43
2022-10-18T14:04:51.308Z,5.83
2022-10-18T14:07:19.328Z,8.40
2022-10-18T14:09:54.256Z,6.67
2022-10-18T14:12:28.653Z,8.07
2022-10-18T14:15:03.355Z,8.60
2022-10-18T14:17:45.270Z,13.37
2022-10-18T14:20:49.113Z,7.17
2022-10-18T14:23:47.933Z,7.90
2022-10-18T14:26:16.945Z,8.03
2022-10-18T14:29:00.565Z,3.57
2022-10-18T14:31:28.121Z,7.27
2022-10-18T14:33:58.284Z,4.47
2022-10-18T14:36:35.823Z,4.67
2022-10-18T14:39:05.850Z,5.17
2022-10-18T14:41:40.301Z,5.60
2022-10-18T14:44:15.774Z,4.33
2022-10-18T14:46:59.487Z,7.23
2022-10-18T14:49:26.584Z,6.63
2022-10-18T14:51:56.432Z,6.20
2022-10-18T14:54:31.653Z,5.90
2022-10-18T14:57:01.117Z,7.23
2022-10-18T14:59:32.330Z,8.27
2022-10-18T15:02:02.251Z,5.60
2022-10-18T15:04:33.346Z,6.53
2022-10-18T15:07:03.537Z,7.33
2022-10-18T15:09:33.233Z,5.10
2022-10-18T15:12:02.215Z,5.43
2022-10-18T15:14:30.481Z,9.43
2022-10-18T15:17:04.923Z,8.93
2022-10-18T15:19:42.190Z,8.20
2022-10-18T15:25:16.517Z,3.70
2022-10-18T15:27:46.561Z,5.60
2022-10-18T15:30:22.704Z,5.80
2022-10-18T15:32:52.841Z,4.47
2022-10-18T15:35:26.501Z,7.27
2022-10-18T15:37:54.904Z,4.20
2022-10-18T15:40:21.265Z,4.47
2022-10-18T15:42:49.883Z,3.37
2022-10-18T15:45:25.372Z,7.27
2022-10-18T15:48:09.138Z,4.60
2022-10-18T15:50:39.548Z,6.03
2022-10-18T15:53:21.063Z,5.77
2022-10-18T15:55:59.605Z,13.63
2022-10-18T15:58:32.179Z,9.60
2022-10-18T16:01:03.562Z,7.67
2022-10-18T16:03:34.466Z,5.63
2022-10-18T16:06:07.633Z,5.40
2022-10-18T16:08:40.935Z,4.93
2022-10-18T16:11:12.793Z,7.97
2022-10-18T16:13:39.307Z,5.77
2022-10-18T16:16:06.104Z,6.30
2022-10-18T16:18:33.430Z,6.10
2022-10-18T16:21:04.569Z,7.77
2022-10-18T16:23:31.465Z,9.10
2022-10-18T16:25:58.080Z,7.97
2022-10-18T16:28:25.695Z,6.57
2022-10-18T16:31:00.222Z,6.83
2022-10-18T16:33:29.213Z,4.43
2022-10-18T16:35:56.253Z,7.33
2022-10-18T16:38:32.812Z,8.20
2022-10-18T16:41:04.497Z,8.43
2022-10-18T16:43:31.650Z,5.93
2022-10-18T16:45:58.209Z,11.13
2022-10-18T16:48:25.374Z,7.33
2022-10-18T16:50:54.666Z,7.20
2022-10-18T16:53:23.792Z,6.67
2022-10-18T16:55:56.131Z,6.90
2022-10-18T17:00:55.851Z,7.93
2022-10-18T17:03:22.592Z,5.77
2022-10-18T17:05:49.236Z,8.40
2022-10-18T17:08:22.032Z,8.07
2022-10-18T17:10:52.830Z,5.17
2022-10-18T17:13:20.474Z,7.30
2022-10-18T17:15:47.329Z,5.70
2022-10-18T17:18:16.202Z,6.27
2022-10-18T17:20:43.654Z,7.87
2022-10-18T17:23:10.942Z,8.23
2022-10-18T17:25:51.473Z,4.73
2022-10-18T17:28:27.382Z,9.83
2022-10-18T17:30:53.936Z,6.43
2022-10-18T17:33:20.544Z,8.67
2022-10-18T17:35:48.615Z,10.53
2022-10-18T17:38:15.931Z,8.37
2022-10-18T17:40:43.391Z,8.33
2022-10-18T17:43:10.269Z,8.53
2022-10-18T17:45:36.793Z,9.33
2022-10-18T17:48:03.535Z,12.57
2022-10-18T17:50:30.016Z,10.97
2022-10-18T17:52:57.290Z,9.83
2022-10-18T17:55:23.717Z,13.53
2022-10-18T17:57:51.392Z,16.43
2022-10-18T18:00:17.969Z,8.60
2022-10-18T18:02:44.989Z,10.17
2022-10-18T18:05:12.587Z,9.73
2022-10-18T18:07:39.061Z,7.93
2022-10-18T18:10:06.068Z,5.30
2022-10-18T18:12:32.888Z,8.10
2022-10-18T18:14:59.761Z,7.80
2022-10-18T18:17:34.161Z,9.27
2022-10-18T18:20:06.979Z,9.50
2022-10-18T18:22:35.226Z,8.60
2022-10-18T18:25:04.855Z,8.47
2022-10-18T18:27:31.774Z,5.97
2022-10-18T18:29:58.326Z,7.33
2022-10-18T18:32:24.869Z,5.37
2022-10-18T18:34:51.303Z,8.57
2022-10-18T18:37:17.742Z,6.63
2022-10-18T18:39:44.454Z,6.13
2022-10-18T18:42:10.992Z,7.90
2022-10-18T18:44:37.524Z,6.37
2022-10-18T18:47:08.397Z,6.07
2022-10-18T18:49:37.461Z,9.07
2022-10-18T18:52:04.178Z,6.40
2022-10-18T18:54:31.694Z,8.73
2022-10-18T18:56:58.831Z,6.00
2022-10-18T18:59:25.414Z,8.37
2022-10-18T19:01:51.859Z,5.80
2022-10-18T19:04:18.520Z,8.40
2022-10-18T19:06:46.680Z,7.87
2022-10-18T19:09:19.671Z,8.97
2022-10-18T19:11:48.095Z,6.33
2022-10-18T19:14:14.990Z,9.10
2022-10-18T19:16:48.756Z,7.63
2022-10-18T19:19:18.968Z,7.60
2022-10-18T19:21:49.063Z,12.00
2022-10-18T19:24:16.158Z,6.20
2022-10-18T19:26:47.497Z,17.80
2022-10-18T19:29:26.325Z,14.77
2022-10-18T19:31:55.116Z,53.87
2022-10-18T19:34:23.436Z,44.77
2022-10-18T19:36:50.565Z,49.77
2022-10-18T19:39:22.449Z,24.33
2022-10-18T19:41:51.192Z,14.13
2022-10-18T19:44:19.212Z,9.43
2022-10-18T19:46:46.430Z,7.93
2022-10-18T19:49:13.013Z,5.47
2022-10-18T19:51:39.826Z,8.27
2022-10-18T19:54:06.501Z,5.57
2022-10-18T19:56:33.052Z,7.60
2022-10-18T19:59:00.063Z,7.47
2022-10-18T20:01:27.903Z,9.13
2022-10-18T20:03:55.062Z,7.67
2022-10-18T20:06:21.866Z,9.60
2022-10-18T20:08:49.046Z,8.90
2022-10-18T20:11:18.087Z,7.67
2022-10-18T20:13:45.700Z,8.30
2022-10-18T20:16:14.133Z,9.37
2022-10-18T20:18:43.120Z,5.73
2022-10-18T20:21:12.363Z,10.60
2022-10-18T20:23:40.799Z,8.73
2022-10-18T20:26:18.186Z,11.10
2022-10-18T20:28:59.833Z,9.50
2022-10-18T20:31:31.216Z,11.47
2022-10-18T20:34:03.004Z,7.90
2022-10-18T20:36:31.985Z,10.43
2022-10-18T20:38:59.466Z,13.23
2022-10-18T20:41:28.924Z,11.17
2022-10-18T20:44:01.004Z,7.90
2022-10-18T20:46:32.119Z,8.73
2022-10-18T20:48:58.860Z,10.13
2022-10-18T20:51:25.890Z,9.47
2022-10-18T20:53:53.603Z,8.20
2022-10-18T20:56:23.232Z,11.13
2022-10-18T20:58:51.711Z,11.47
2022-10-18T21:01:24.000Z,9.47
2022-10-18T21:03:52.461Z,12.83
2022-10-18T21:06:24.354Z,9.87
2022-10-18T21:08:59.439Z,13.87
2022-10-18T21:11:27.873Z,10.53
2022-10-18T21:13:57.441Z,10.53
2022-10-18T21:16:24.071Z,11.73
2022-10-18T21:18:50.732Z,10.87
2022-10-18T21:21:20.214Z,15.00
2022-10-18T21:23:47.293Z,12.83
2022-10-18T21:26:19.790Z,13.37
2022-10-18T21:28:47.243Z,9.53
2022-10-18T21:31:19.502Z,13.13
2022-10-18T21:33:46.965Z,9.90
2022-10-18T21:36:14.581Z,11.90
2022-10-18T21:38:45.451Z,9.23
2022-10-18T21:41:13.946Z,10.40
2022-10-18T21:43:45.004Z,8.77
2022-10-18T21:46:13.802Z,8.67
2022-10-18T21:48:47.032Z,9.77
2022-10-18T21:51:15.745Z,11.90
2022-10-18T21:53:43.841Z,15.83
2022-10-18T21:56:13.610Z,10.97
2022-10-18T21:58:40.698Z,8.43
2022-10-18T22:01:15.231Z,10.30
2022-10-18T22:03:41.915Z,10.50
2022-10-18T22:06:14.367Z,8.93
2022-10-18T22:08:42.185Z,11.67
2022-10-18T22:11:09.502Z,10.83
2022-10-18T22:13:36.299Z,9.47
2022-10-18T22:16:04.690Z,14.00
2022-10-18T22:18:32.735Z,10.27
2022-10-18T22:21:02.949Z,10.67
2022-10-18T22:23:37.744Z,9.90
2022-10-18T22:26:07.639Z,7.60
2022-10-18T22:28:36.116Z,13.03
2022-10-18T22:31:02.721Z,7.83
2022-10-18T22:33:29.858Z,7.97
2022-10-18T22:35:56.770Z,7.63
2022-10-18T22:38:23.620Z,10.03
2022-10-18T22:40:50.134Z,12.63
2022-10-18T22:43:16.595Z,10.90
2022-10-18T22:45:43.370Z,7.97
2022-10-18T22:48:09.791Z,8.47
2022-10-18T22:50:36.360Z,12.17
2022-10-18T22:53:02.839Z,7.70
2022-10-18T22:55:29.447Z,9.13
2022-10-18T22:57:56.332Z,7.87
2022-10-18T23:00:22.893Z,13.10
2022-10-18T23:02:49.893Z,11.40
2022-10-18T23:05:16.428Z,12.27
2022-10-18T23:07:47.837Z,8.90
2022-10-18T23:10:14.624Z,10.67
2022-10-18T23:12:41.111Z,13.37
2022-10-18T23:15:08.110Z,8.30
2022-10-18T23:17:34.780Z,10.23
2022-10-18T23:20:02.792Z,10.33
2022-10-18T23:22:29.427Z,9.57
2022-10-18T23:24:56.094Z,10.83
2022-10-18T23:27:22.532Z,10.53
2022-10-18T23:29:48.985Z,9.03
2022-10-18T23:32:15.471Z,12.57
2022-10-18T23:34:41.890Z,13.80
2022-10-18T23:37:08.360Z,11.37
2022-10-18T23:39:34.798Z,11.53
2022-10-18T23:42:01.883Z,12.53
2022-10-18T23:44:28.378Z,10.83
2022-10-18T23:46:54.950Z,12.63
2022-10-18T23:49:21.391Z,11.87
2022-10-18T23:51:48.047Z,10.03
2022-10-18T23:54:14.464Z,12.37
2022-10-18T23:56:41.011Z,10.57
2022-10-18T23:59:07.477Z,9.03
